Time;durP1;ratioP1;P1;durP2;ratioP2;P2;SDS_P1;SDS_P2;PMS_P1;PMS_P2;Temp;Humidity;BMP_temperature;BMP_pressure;BME280_temperature;BME280_humidity;BME280_pressure;Samples;Min_cycle;Max_cycle;Signal;HPM_P1;HPM_P2
2023/11/08 00:01:12;;;;;;;;;;;;;;;;;;5056297;28;4949;-57
2023/11/08 00:06:40;;;;;;;;;;;;;;;;;;5076612;28;5081;-58
2023/11/08 00:09:06;;;;;;;;;;;;;;;;;;5058633;28;5049;-59
2023/11/08 00:11:32;;;;;;;;;;;;;;;;;;5077296;28;1191;-59
2023/11/08 00:13:57;;;;;;;;;;;;;;;;;;5076022;28;4486;-58
2023/11/08 00:19:25;;;;;;;;;;;;;;;;;;5076296;28;4929;-59
2023/11/08 00:21:50;;;;;;;;;;;;;;;;;;5076210;28;4894;-58
2023/11/08 00:24:16;;;;;;;;;;;;;;;;;;5074208;28;5116;-58
2023/11/08 00:26:42;;;;;;;;;;;;;;;;;;5041328;28;3042;-58
2023/11/08 00:38:24;;;;;;;;;;;;;;;;;;5053059;28;4941;-58
2023/11/08 00:40:50;;;;;;;;;;;;;;;;;;5053395;28;4838;-58
2023/11/08 00:46:18;;;;;;;;;;;;;;;;;;5073484;28;4988;-58
2023/11/08 00:48:44;;;;;;;;;;;;;;;;;;5050514;28;5033;-59
2023/11/08 00:51:11;;;;;;;;;;;;;;;;;;5060542;28;4486;-58
2023/11/08 00:53:39;;;;;;;;;;;;;;;;;;5054879;28;1159;-58
2023/11/08 00:56:05;;;;;;;;;;;;;;;;;;5053513;28;4417;-58
2023/11/08 00:58:30;;;;;;;;;;;;;;;;;;5066505;28;5013;-58
2023/11/08 01:00:55;;;;;;;;;;;;;;;;;;5075514;28;5079;-58
2023/11/08 01:06:25;;;;;;;;;;;;;;;;;;5072058;28;4670;-58
2023/11/08 01:08:50;;;;;;;;;;;;;;;;;;5073026;28;1322;-58
2023/11/08 01:11:17;;;;;;;;;;;;;;;;;;5073925;28;5014;-58
2023/11/08 01:13:42;;;;;;;;;;;;;;;;;;5054810;28;5111;-58
2023/11/08 01:22:23;;;;;;;;;;;;;;;;;;5067332;28;4663;-58
2023/11/08 01:24:48;;;;;;;;;;;;;;;;;;5051434;28;4719;-58
2023/11/08 01:27:14;;;;;;;;;;;;;;;;;;5051344;28;5153;-58
2023/11/08 01:29:39;;;;;;;;;;;;;;;;;;5053089;28;1010;-58
2023/11/08 01:35:32;;;;;;;;;;;;;;;;;;5052361;28;4898;-58
2023/11/08 01:37:58;;;;;;;;;;;;;;;;;;5051601;28;5015;-58
2023/11/08 01:40:24;;;;;;;;;;;;;;;;;;5054571;28;4936;-58
2023/11/08 01:45:52;;;;;;;;;;;;;;;;;;5054801;28;4496;-59
2023/11/08 01:51:20;;;;;;;;;;;;;;;;;;5054495;28;4405;-58
2023/11/08 01:56:48;;;;;;;;;;;;;;;;;;5054988;28;4557;-58
2023/11/08 02:02:19;;;;;;;;;;;;;;;;;;5054252;28;4971;-58
2023/11/08 02:04:44;;;;;;;;;;;;;;;;;;5036752;28;5003;-58
2023/11/08 02:07:18;;;;;;;;;;;;;;;;;;5053795;28;5094;-59
2023/11/08 02:12:46;;;;;;;;;;;;;;;;;;5054207;28;5125;-58
2023/11/08 02:15:14;;;;;;;;;;;;;;;;;;5036059;28;4993;-59
2023/11/08 02:17:40;;;;;;;;;;;;;;;;;;5064698;28;2605;-58
2023/11/08 02:20:06;;;;;;;;;;;;;;;;;;5074058;28;4957;-58
2023/11/08 02:22:44;;;;;;;;;;;;;;;;;;5073908;28;4935;-59
2023/11/08 02:25:11;;;;;;;;;;;;;;;;;;5036326;28;5151;-59
2023/11/08 02:27:36;;;;;;;;;;;;;;;;;;5036272;28;4632;-59
2023/11/08 02:33:04;;;;;;;;;;;;;;;;;;5053796;28;4459;-59
2023/11/08 02:35:30;;;;;;;;;;;;;;;;;;5054605;28;1147;-59
2023/11/08 02:37:56;;;;;;;;;;;;;;;;;;5053985;28;5051;-59
2023/11/08 02:40:21;;;;;;;;;;;;;;;;;;5054006;28;4926;-58
2023/11/08 02:42:47;;;;;;;;;;;;;;;;;;5035956;28;4934;-58
2023/11/08 02:45:12;;;;;;;;;;;;;;;;;;5053766;28;5164;-58
2023/11/08 02:47:39;;;;;;;;;;;;;;;;;;5054139;28;1973;-59
2023/11/08 02:53:07;;;;;;;;;;;;;;;;;;5057939;28;4908;-58
2023/11/08 02:55:33;;;;;;;;;;;;;;;;;;5052353;28;4930;-59
2023/11/08 02:57:58;;;;;;;;;;;;;;;;;;5058070;28;4953;-58
2023/11/08 03:00:24;;;;;;;;;;;;;;;;;;5028559;28;5152;-58
2023/11/08 03:02:51;;;;;;;;;;;;;;;;;;5036336;28;3032;-59
2023/11/08 03:05:22;;;;;;;;;;;;;;;;;;5035077;28;4963;-58
2023/11/08 03:07:58;;;;;;;;;;;;;;;;;;5026144;28;4505;-58
2023/11/08 03:10:23;;;;;;;;;;;;;;;;;;5039452;28;4595;-57
2023/11/08 03:12:53;;;;;;;;;;;;;;;;;;5056181;28;5769;-59
2023/11/08 03:18:21;;;;;;;;;;;;;;;;;;5044817;28;5173;-57
2023/11/08 03:20:47;;;;;;;;;;;;;;;;;;5048198;28;1056;-59
2023/11/08 03:23:12;;;;;;;;;;;;;;;;;;5040499;28;4599;-60
2023/11/08 03:25:38;;;;;;;;;;;;;;;;;;5060624;28;4484;-58
2023/11/08 03:28:04;;;;;;;;;;;;;;;;;;5042861;28;5045;-60
2023/11/08 03:30:29;;;;;;;;;;;;;;;;;;5057247;28;5070;-59
2023/11/08 03:32:55;;;;;;;;;;;;;;;;;;5057690;28;2791;-59
2023/11/08 03:41:26;;;;;;;;;;;;;;;;;;5062386;28;4602;-58
2023/11/08 03:43:52;;;;;;;;;;;;;;;;;;5074172;28;5035;-58
2023/11/08 03:46:17;;;;;;;;;;;;;;;;;;5075284;28;4649;-58
2023/11/08 03:48:42;;;;;;;;;;;;;;;;;;5067699;28;4568;-58
2023/11/08 03:51:08;;;;;;;;;;;;;;;;;;5054448;28;4528;-58
2023/11/08 03:53:33;;;;;;;;;;;;;;;;;;5038853;28;1540;-58
2023/11/08 03:56:00;;;;;;;;;;;;;;;;;;5050958;28;4455;-60
2023/11/08 03:58:25;;;;;;;;;;;;;;;;;;5068382;28;4516;-59
2023/11/08 04:00:57;;;;;;;;;;;;;;;;;;5068927;28;4989;-58
2023/11/08 04:03:22;;;;;;;;;;;;;;;;;;5053865;28;4916;-58
2023/11/08 04:05:57;;;;;;;;;;;;;;;;;;5049592;28;2486;-59
2023/11/08 04:08:23;;;;;;;;;;;;;;;;;;5049712;28;5108;-58
2023/11/08 04:10:54;;;;;;;;;;;;;;;;;;5050251;28;5069;-58
2023/11/08 04:13:31;;;;;;;;;;;;;;;;;;5052943;28;5264;-58
2023/11/08 04:16:17;;;;;;;;;;;;;;;;;;5064204;28;4693;-58
2023/11/08 04:18:43;;;;;;;;;;;;;;;;;;5056289;28;5099;-59
2023/11/08 04:21:09;;;;;;;;;;;;;;;;;;5060852;28;4902;-58
2023/11/08 04:23:35;;;;;;;;;;;;;;;;;;5054183;28;1423;-59
2023/11/08 04:26:00;;;;;;;;;;;;;;;;;;5058469;28;5124;-57
2023/11/08 04:28:26;;;;;;;;;;;;;;;;;;5073273;28;5064;-58
2023/11/08 04:30:51;;;;;;;;;;;;;;;;;;5058606;28;5004;-59
2023/11/08 04:33:17;;;;;;;;;;;;;;;;;;5065311;28;5101;-59
2023/11/08 04:44:58;;;;;;;;;;;;;;;;;;5051171;28;4544;-58
2023/11/08 04:50:27;;;;;;;;;;;;;;;;;;5064796;28;4744;-60
2023/11/08 04:52:58;;;;;;;;;;;;;;;;;;5059629;28;4535;-58
2023/11/08 04:55:23;;;;;;;;;;;;;;;;;;5056773;28;4430;-58
2023/11/08 04:57:49;;;;;;;;;;;;;;;;;;5060827;28;4709;-58
2023/11/08 05:00:16;;;;;;;;;;;;;;;;;;5044691;28;4794;-59
2023/11/08 05:02:42;;;;;;;;;;;;;;;;;;5063765;28;2837;-59
2023/11/08 05:05:12;;;;;;;;;;;;;;;;;;5059073;28;5067;-59
2023/11/08 05:07:38;;;;;;;;;;;;;;;;;;5055331;28;5129;-67
2023/11/08 05:19:30;;;;;;;;;;;;;;;;;;5069297;28;4693;-59
2023/11/08 05:21:56;;;;;;;;;;;;;;;;;;5055601;28;4965;-59
2023/11/08 05:24:22;;;;;;;;;;;;;;;;;;5061064;28;5355;-58
2023/11/08 05:26:47;;;;;;;;;;;;;;;;;;5024100;28;2127;-59
2023/11/08 05:32:19;;;;;;;;;;;;;;;;;;5035435;28;5073;-59
2023/11/08 05:34:44;;;;;;;;;;;;;;;;;;5029141;28;4480;-59
2023/11/08 05:37:10;;;;;;;;;;;;;;;;;;5022214;28;5159;-59
2023/11/08 05:39:36;;;;;;;;;;;;;;;;;;5027084;28;5127;-59
2023/11/08 05:42:01;;;;;;;;;;;;;;;;;;5027264;28;5129;-58
2023/11/08 05:44:26;;;;;;;;;;;;;;;;;;5044151;28;2893;-65
2023/11/08 05:46:52;;;;;;;;;;;;;;;;;;5031560;28;4677;-57
2023/11/08 05:49:31;;;;;;;;;;;;;;;;;;5035975;28;5102;-57
2023/11/08 05:51:56;;;;;;;;;;;;;;;;;;5013436;28;4565;-62
2023/11/08 05:54:22;;;;;;;;;;;;;;;;;;5033457;28;5628;-58
2023/11/08 05:57:09;;;;;;;;;;;;;;;;;;5034703;28;1009;-58
2023/11/08 05:59:35;;;;;;;;;;;;;;;;;;5048192;28;5245;-58
2023/11/08 06:02:01;;;;;;;;;;;;;;;;;;5034917;28;5040;-58
2023/11/08 06:04:26;;;;;;;;;;;;;;;;;;5049077;28;4865;-58
2023/11/08 06:22:04;;;;;;;;;;;;;;;;;;5027775;28;5118;-59
2023/11/08 06:24:29;;;;;;;;;;;;;;;;;;5040184;28;5305;-60
2023/11/08 06:26:55;;;;;;;;;;;;;;;;;;5046656;28;1963;-59
2023/11/08 06:29:58;;;;;;;;;;;;;;;;;;5052744;28;4841;-59
2023/11/08 06:32:58;;;;;;;;;;;;;;;;;;5051032;28;4992;-59
2023/11/08 06:38:27;;;;;;;;;;;;;;;;;;5052019;28;5406;-59
2023/11/08 06:40:52;;;;;;;;;;;;;;;;;;5063158;28;4397;-58
2023/11/08 06:43:18;;;;;;;;;;;;;;;;;;5073964;28;5073;-60
2023/11/08 06:51:48;;;;;;;;;;;;;;;;;;5058872;28;5124;-58
2023/11/08 06:54:14;;;;;;;;;;;;;;;;;;5051171;28;4899;-58
2023/11/08 06:56:39;;;;;;;;;;;;;;;;;;5067568;28;1090;-58
2023/11/08 06:59:04;;;;;;;;;;;;;;;;;;5052265;28;4625;-59
2023/11/08 07:01:47;;;;;;;;;;;;;;;;;;5054200;28;4606;-58
2023/11/08 07:04:50;;;;;;;;;;;;;;;;;;5072170;28;4629;-57
2023/11/08 07:10:24;;;;;;;;;;;;;;;;;;5072196;28;4625;-58
2023/11/08 07:12:53;;;;;;;;;;;;;;;;;;5065247;28;4989;-59
2023/11/08 07:15:18;;;;;;;;;;;;;;;;;;5056692;28;4708;-59
2023/11/08 07:17:43;;;;;;;;;;;;;;;;;;5072099;28;1067;-58
2023/11/08 07:20:10;;;;;;;;;;;;;;;;;;5058379;28;4836;-57
2023/11/08 07:22:36;;;;;;;;;;;;;;;;;;5053112;28;4689;-57
2023/11/08 07:25:01;;;;;;;;;;;;;;;;;;5050804;28;5091;-57
2023/11/08 07:27:27;;;;;;;;;;;;;;;;;;5051299;28;5101;-57
2023/11/08 07:29:53;;;;;;;;;;;;;;;;;;5052246;28;2061;-57
2023/11/08 07:32:19;;;;;;;;;;;;;;;;;;5048920;28;4696;-58
2023/11/08 07:34:44;;;;;;;;;;;;;;;;;;5056222;28;5053;-59
2023/11/08 07:37:09;;;;;;;;;;;;;;;;;;5070985;28;5115;-56
2023/11/08 07:39:38;;;;;;;;;;;;;;;;;;5067066;28;4537;-56
2023/11/08 07:42:03;;;;;;;;;;;;;;;;;;5056326;28;5100;-56
2023/11/08 07:44:30;;;;;;;;;;;;;;;;;;5044222;28;2787;-56
2023/11/08 08:11:16;;;;;;;;;;;;;;;;;;5052232;28;5080;-56
2023/11/08 08:13:45;;;;;;;;;;;;;;;;;;5054685;28;4660;-56
2023/11/08 08:16:10;;;;;;;;;;;;;;;;;;5054695;28;4409;-56
2023/11/08 08:21:31;;;;;;;;;;;;;;;;;;5090360;28;5209;-56
2023/11/08 08:23:56;;;;;;;;;;;;;;;;;;5072483;28;1332;-56
2023/11/08 08:26:21;;;;;;;;;;;;;;;;;;5037784;28;4938;-56
2023/11/08 08:29:03;;;;;;;;;;;;;;;;;;5033343;28;4475;-56
2023/11/08 08:31:28;;;;;;;;;;;;;;;;;;5033879;28;4479;-56
2023/11/08 08:33:57;;;;;;;;;;;;;;;;;;5034056;28;4861;-56
2023/11/08 08:36:23;;;;;;;;;;;;;;;;;;5029918;28;5054;-55
2023/11/08 08:38:48;;;;;;;;;;;;;;;;;;5025781;28;1075;-54
2023/11/08 08:41:13;;;;;;;;;;;;;;;;;;5055875;28;4594;-55
2023/11/08 08:43:39;;;;;;;;;;;;;;;;;;5046651;28;4995;-56
2023/11/08 08:46:05;;;;;;;;;;;;;;;;;;5049103;28;5391;-55
2023/11/08 08:48:30;;;;;;;;;;;;;;;;;;5040520;28;4916;-55
2023/11/08 08:50:55;;;;;;;;;;;;;;;;;;5041550;28;1048;-56
2023/11/08 08:53:20;;;;;;;;;;;;;;;;;;5034512;28;4933;-56
2023/11/08 08:55:46;;;;;;;;;;;;;;;;;;5037871;28;5073;-56
2023/11/08 08:58:12;;;;;;;;;;;;;;;;;;5031345;28;4506;-56
2023/11/08 09:00:37;;;;;;;;;;;;;;;;;;5040565;28;5129;-56
2023/11/08 09:03:03;;;;;;;;;;;;;;;;;;5032482;28;5088;-56
2023/11/08 09:05:29;;;;;;;;;;;;;;;;;;5050954;28;993;-55
2023/11/08 09:07:55;;;;;;;;;;;;;;;;;;5036246;28;4939;-58
2023/11/08 09:10:21;;;;;;;;;;;;;;;;;;5040338;28;4826;-58
2023/11/08 09:12:46;;;;;;;;;;;;;;;;;;5033254;28;5055;-69
2023/11/08 09:21:48;;;;;;;;;;;;;;;;;;5035870;28;5084;-77
2023/11/08 09:24:21;;;;;;;;;;;;;;;;;;5039605;28;5044;-81
2023/11/08 09:26:48;;;;;;;;;;;;;;;;;;5069633;28;1915;-72
2023/11/08 09:29:14;;;;;;;;;;;;;;;;;;5055581;28;4579;-75
2023/11/08 09:37:54;;;;;;;;;;;;;;;;;;5059568;28;4487;-70
2023/11/08 09:40:20;;;;;;;;;;;;;;;;;;5034915;28;5160;-72
2023/11/08 09:42:45;;;;;;;;;;;;;;;;;;5032335;28;4713;-73
2023/11/08 09:45:11;;;;;;;;;;;;;;;;;;5051050;28;4636;-76
2023/11/08 09:47:37;;;;;;;;;;;;;;;;;;5057489;28;3244;-70
2023/11/08 09:50:03;;;;;;;;;;;;;;;;;;5053806;28;4973;-70
2023/11/08 09:52:46;;;;;;;;;;;;;;;;;;5046633;28;4988;-71
2023/11/08 09:55:11;;;;;;;;;;;;;;;;;;5057072;28;5223;-70
2023/11/08 09:57:37;;;;;;;;;;;;;;;;;;5021811;28;5196;-71
2023/11/08 10:00:08;;;;;;;;;;;;;;;;;;5055067;28;4797;-66
2023/11/08 10:02:36;;;;;;;;;;;;;;;;;;5053334;28;3212;-68
2023/11/08 10:05:03;;;;;;;;;;;;;;;;;;5045435;28;4942;-71
2023/11/08 10:16:48;;;;;;;;;;;;;;;;;;5057570;28;4942;-66
2023/11/08 10:19:15;;;;;;;;;;;;;;;;;;5053199;28;4697;-68
2023/11/08 10:21:49;;;;;;;;;;;;;;;;;;5034432;28;4524;-63
2023/11/08 10:24:16;;;;;;;;;;;;;;;;;;5043996;28;5059;-65
2023/11/08 10:29:30;;;;;;;;;;;;;;;;;;5049799;28;5036;-66
2023/11/08 10:35:19;;;;;;;;;;;;;;;;;;5052310;28;4453;-68
2023/11/08 10:37:45;;;;;;;;;;;;;;;;;;5054270;28;4921;-69
2023/11/08 10:40:13;;;;;;;;;;;;;;;;;;5030124;28;4686;-67
2023/11/08 10:42:38;;;;;;;;;;;;;;;;;;5034724;28;5068;-67
2023/11/08 10:45:20;;;;;;;;;;;;;;;;;;5057944;28;5040;-70
2023/11/08 11:00:22;;;;;;;;;;;;;;;;;;5053048;28;2765;-69
2023/11/08 11:05:59;;;;;;;;;;;;;;;;;;5055430;28;4565;-65
2023/11/08 11:08:25;;;;;;;;;;;;;;;;;;5054805;28;4844;-69
2023/11/08 11:10:50;;;;;;;;;;;;;;;;;;5050276;28;5042;-60
2023/11/08 11:13:22;;;;;;;;;;;;;;;;;;5050980;28;4994;-59
2023/11/08 11:16:06;;;;;;;;;;;;;;;;;;5050465;28;4716;-59
2023/11/08 11:18:42;;;;;;;;;;;;;;;;;;5034653;28;4920;-63
2023/11/08 11:21:15;;;;;;;;;;;;;;;;;;5053141;28;5142;-64
2023/11/08 11:23:43;;;;;;;;;;;;;;;;;;5057812;28;1113;-65
2023/11/08 11:26:11;;;;;;;;;;;;;;;;;;5068909;28;5056;-64
2023/11/08 11:28:49;;;;;;;;;;;;;;;;;;5063933;28;5021;-63
2023/11/08 11:31:33;;;;;;;;;;;;;;;;;;5051664;28;5167;-63
2023/11/08 11:33:58;;;;;;;;;;;;;;;;;;5053882;28;4485;-64
2023/11/08 11:36:24;;;;;;;;;;;;;;;;;;5041320;28;5101;-64
2023/11/08 11:39:19;;;;;;;;;;;;;;;;;;5021297;28;3444;-63
2023/11/08 11:41:45;;;;;;;;;;;;;;;;;;5043118;28;4915;-64
2023/11/08 11:44:10;;;;;;;;;;;;;;;;;;5075104;28;5447;-66
2023/11/08 11:46:45;;;;;;;;;;;;;;;;;;5062324;28;4842;-64
2023/11/08 11:49:11;;;;;;;;;;;;;;;;;;5070553;28;4994;-64
2023/11/08 11:51:40;;;;;;;;;;;;;;;;;;5042856;28;4754;-70
2023/11/08 11:59:59;;;;;;;;;;;;;;;;;;5047494;28;5190;-62
2023/11/08 12:02:31;;;;;;;;;;;;;;;;;;5052666;28;2989;-63
2023/11/08 12:04:59;;;;;;;;;;;;;;;;;;5050794;28;4457;-62
2023/11/08 12:07:25;;;;;;;;;;;;;;;;;;5054208;28;5070;-62
2023/11/08 12:09:51;;;;;;;;;;;;;;;;;;5035030;28;4489;-61
2023/11/08 12:18:21;;;;;;;;;;;;;;;;;;5049387;28;5232;-62
2023/11/08 12:20:48;;;;;;;;;;;;;;;;;;5018489;28;1387;-62
2023/11/08 12:23:14;;;;;;;;;;;;;;;;;;5032081;28;5071;-63
2023/11/08 12:25:45;;;;;;;;;;;;;;;;;;5051188;28;4696;-58
2023/11/08 12:28:11;;;;;;;;;;;;;;;;;;5042937;28;4573;-60
2023/11/08 12:30:36;;;;;;;;;;;;;;;;;;5032864;28;5629;-66
2023/11/08 12:33:02;;;;;;;;;;;;;;;;;;5013786;28;4497;-66
2023/11/08 12:35:28;;;;;;;;;;;;;;;;;;5039959;28;1116;-65
2023/11/08 12:37:57;;;;;;;;;;;;;;;;;;5032726;28;4526;-65
2023/11/08 12:40:23;;;;;;;;;;;;;;;;;;5016604;28;4679;-67
2023/11/08 12:42:49;;;;;;;;;;;;;;;;;;5013763;28;4695;-67
2023/11/08 12:51:19;;;;;;;;;;;;;;;;;;5031491;28;4703;-65
2023/11/08 12:53:47;;;;;;;;;;;;;;;;;;5034215;28;1041;-66
2023/11/08 12:56:13;;;;;;;;;;;;;;;;;;5048973;28;5083;-66
2023/11/08 13:07:46;;;;;;;;;;;;;;;;;;5037837;28;5132;-65
2023/11/08 13:10:11;;;;;;;;;;;;;;;;;;5035690;28;4969;-66
2023/11/08 13:12:37;;;;;;;;;;;;;;;;;;5054924;28;5232;-65
2023/11/08 13:15:02;;;;;;;;;;;;;;;;;;5046287;28;6027;-65
2023/11/08 13:17:27;;;;;;;;;;;;;;;;;;5036456;28;1075;-65
2023/11/08 13:19:54;;;;;;;;;;;;;;;;;;5040236;28;5065;-65
2023/11/08 13:22:20;;;;;;;;;;;;;;;;;;5031644;28;5079;-65
2023/11/08 13:24:46;;;;;;;;;;;;;;;;;;5033519;28;4804;-66
2023/11/08 13:27:34;;;;;;;;;;;;;;;;;;5055905;28;5145;-65
2023/11/08 13:30:00;;;;;;;;;;;;;;;;;;5035147;28;4633;-65
2023/11/08 13:32:33;;;;;;;;;;;;;;;;;;5055223;28;1007;-66
2023/11/08 13:38:03;;;;;;;;;;;;;;;;;;5075266;28;5030;-66
2023/11/08 13:40:28;;;;;;;;;;;;;;;;;;5055292;28;5115;-66
2023/11/08 13:42:57;;;;;;;;;;;;;;;;;;5071131;28;5160;-66
2023/11/08 13:45:23;;;;;;;;;;;;;;;;;;5061926;28;6032;-66
2023/11/08 13:47:51;;;;;;;;;;;;;;;;;;5053978;28;2035;-66
2023/11/08 13:50:18;;;;;;;;;;;;;;;;;;5070505;28;4445;-66
2023/11/08 13:52:43;;;;;;;;;;;;;;;;;;5065639;28;4843;-65
2023/11/08 13:58:19;;;;;;;;;;;;;;;;;;5067420;28;5383;-66
2023/11/08 14:01:05;;;;;;;;;;;;;;;;;;5069779;28;4814;-66
2023/11/08 14:03:30;;;;;;;;;;;;;;;;;;5032385;28;4528;-66
2023/11/08 14:05:56;;;;;;;;;;;;;;;;;;5074771;28;1336;-66
2023/11/08 14:08:22;;;;;;;;;;;;;;;;;;5053738;28;4967;-66
2023/11/08 14:10:47;;;;;;;;;;;;;;;;;;5073024;28;5074;-66
2023/11/08 14:13:12;;;;;;;;;;;;;;;;;;5076792;28;5168;-66
2023/11/08 14:15:38;;;;;;;;;;;;;;;;;;5052744;28;5688;-65
2023/11/08 14:18:03;;;;;;;;;;;;;;;;;;5074799;28;4952;-65
2023/11/08 14:20:29;;;;;;;;;;;;;;;;;;5079055;28;1121;-67
2023/11/08 14:22:54;;;;;;;;;;;;;;;;;;5052029;28;5045;-66
2023/11/08 14:25:20;;;;;;;;;;;;;;;;;;5064437;28;4893;-66
2023/11/08 14:27:46;;;;;;;;;;;;;;;;;;5067701;28;5055;-59
2023/11/08 14:30:11;;;;;;;;;;;;;;;;;;5051198;28;4965;-59
2023/11/08 14:32:37;;;;;;;;;;;;;;;;;;5071506;28;3056;-59
2023/11/08 14:35:03;;;;;;;;;;;;;;;;;;5046674;28;5097;-59
2023/11/08 14:37:42;;;;;;;;;;;;;;;;;;5062225;28;5092;-59
2023/11/08 14:40:08;;;;;;;;;;;;;;;;;;5069323;28;4643;-59
2023/11/08 14:42:33;;;;;;;;;;;;;;;;;;5051763;28;5226;-59
2023/11/08 14:44:58;;;;;;;;;;;;;;;;;;5083188;28;5091;-60
2023/11/08 14:47:25;;;;;;;;;;;;;;;;;;5077069;28;2477;-59
2023/11/08 14:49:51;;;;;;;;;;;;;;;;;;5051631;28;5036;-59
2023/11/08 14:52:17;;;;;;;;;;;;;;;;;;5070850;28;4638;-58
2023/11/08 14:54:46;;;;;;;;;;;;;;;;;;5062613;28;5234;-59
2023/11/08 14:57:13;;;;;;;;;;;;;;;;;;5089736;28;5106;-59
2023/11/08 14:59:38;;;;;;;;;;;;;;;;;;5075702;28;3030;-59
2023/11/08 15:02:04;;;;;;;;;;;;;;;;;;5082809;28;5020;-60
2023/11/08 15:04:29;;;;;;;;;;;;;;;;;;5071114;28;4513;-59
2023/11/08 15:06:54;;;;;;;;;;;;;;;;;;5065379;28;5120;-59
2023/11/08 15:09:19;;;;;;;;;;;;;;;;;;5071019;28;4712;-59
2023/11/08 15:11:45;;;;;;;;;;;;;;;;;;5074444;28;3010;-58
2023/11/08 15:14:10;;;;;;;;;;;;;;;;;;5054972;28;4947;-59
2023/11/08 15:16:35;;;;;;;;;;;;;;;;;;5075764;28;5086;-59
2023/11/08 15:19:01;;;;;;;;;;;;;;;;;;5054516;28;4834;-58
2023/11/08 15:21:43;;;;;;;;;;;;;;;;;;5071227;28;4456;-58
2023/11/08 15:24:09;;;;;;;;;;;;;;;;;;5054357;28;5077;-58
2023/11/08 15:26:34;;;;;;;;;;;;;;;;;;5074803;28;2851;-58
2023/11/08 15:28:59;;;;;;;;;;;;;;;;;;5089176;28;4420;-58
2023/11/08 15:31:27;;;;;;;;;;;;;;;;;;5070483;28;5294;-59
2023/11/08 15:33:53;;;;;;;;;;;;;;;;;;5077411;28;4726;-58
2023/11/08 15:36:18;;;;;;;;;;;;;;;;;;5080752;28;4593;-58
2023/11/08 15:38:47;;;;;;;;;;;;;;;;;;5076432;28;3282;-58
2023/11/08 15:41:12;;;;;;;;;;;;;;;;;;5054685;28;5398;-61
2023/11/08 15:43:38;;;;;;;;;;;;;;;;;;5078706;28;5333;-59
2023/11/08 15:46:03;;;;;;;;;;;;;;;;;;5077798;28;5070;-58
2023/11/08 15:48:31;;;;;;;;;;;;;;;;;;5067282;28;4597;-58
2023/11/08 15:50:57;;;;;;;;;;;;;;;;;;5066895;28;3069;-58
2023/11/08 15:53:23;;;;;;;;;;;;;;;;;;5081045;28;4560;-57
2023/11/08 15:55:48;;;;;;;;;;;;;;;;;;5077365;28;4534;-57
2023/11/08 16:01:16;;;;;;;;;;;;;;;;;;5079645;28;5161;-58
2023/11/08 16:03:41;;;;;;;;;;;;;;;;;;5070429;28;4499;-58
2023/11/08 16:06:07;;;;;;;;;;;;;;;;;;5091211;28;5065;-57
2023/11/08 16:08:33;;;;;;;;;;;;;;;;;;5052812;28;1921;-57
2023/11/08 16:11:08;;;;;;;;;;;;;;;;;;5061448;28;4484;-57
2023/11/08 16:13:34;;;;;;;;;;;;;;;;;;5073817;28;5027;-57
2023/11/08 16:15:59;;;;;;;;;;;;;;;;;;5080359;28;5032;-57
2023/11/08 16:18:25;;;;;;;;;;;;;;;;;;5079832;28;4504;-56
2023/11/08 16:20:51;;;;;;;;;;;;;;;;;;5074816;28;969;-57
2023/11/08 16:23:16;;;;;;;;;;;;;;;;;;5093066;28;4945;-57
2023/11/08 16:25:41;;;;;;;;;;;;;;;;;;5070803;28;5063;-57
2023/11/08 16:28:07;;;;;;;;;;;;;;;;;;5078137;28;4966;-57
2023/11/08 16:30:32;;;;;;;;;;;;;;;;;;5054237;28;5238;-58
2023/11/08 16:32:58;;;;;;;;;;;;;;;;;;5070307;28;4824;-56
2023/11/08 16:35:28;;;;;;;;;;;;;;;;;;5065312;28;1162;-57
2023/11/08 16:37:53;;;;;;;;;;;;;;;;;;5087306;28;4589;-58
2023/11/08 16:40:19;;;;;;;;;;;;;;;;;;5092448;28;4830;-57
2023/11/08 16:42:44;;;;;;;;;;;;;;;;;;5075293;28;5020;-57
2023/11/08 16:45:10;;;;;;;;;;;;;;;;;;5078398;28;5197;-57
2023/11/08 16:47:35;;;;;;;;;;;;;;;;;;5093644;28;3315;-57
2023/11/08 16:50:00;;;;;;;;;;;;;;;;;;5095494;28;5051;-57
2023/11/08 16:52:26;;;;;;;;;;;;;;;;;;5095556;28;4951;-57
2023/11/08 16:57:54;;;;;;;;;;;;;;;;;;5076584;28;5197;-57
2023/11/08 17:00:21;;;;;;;;;;;;;;;;;;5075154;28;5005;-57
2023/11/08 17:02:47;;;;;;;;;;;;;;;;;;5072807;28;1040;-56
2023/11/08 17:05:12;;;;;;;;;;;;;;;;;;5074246;28;4441;-57
2023/11/08 17:07:37;;;;;;;;;;;;;;;;;;5055562;28;5039;-57
2023/11/08 17:10:03;;;;;;;;;;;;;;;;;;5056296;28;5117;-57
2023/11/08 17:12:28;;;;;;;;;;;;;;;;;;5070719;28;4440;-57
2023/11/08 17:14:54;;;;;;;;;;;;;;;;;;5055751;28;1192;-58
2023/11/08 17:17:19;;;;;;;;;;;;;;;;;;5081489;28;5280;-58
2023/11/08 17:19:46;;;;;;;;;;;;;;;;;;5076812;28;4450;-58
2023/11/08 17:22:11;;;;;;;;;;;;;;;;;;5053413;28;5088;-58
2023/11/08 17:24:36;;;;;;;;;;;;;;;;;;5100294;28;4937;-58
2023/11/08 17:27:02;;;;;;;;;;;;;;;;;;5070042;28;5103;-58
2023/11/08 17:29:27;;;;;;;;;;;;;;;;;;5053150;28;1066;-58
2023/11/08 17:35:30;;;;;;;;;;;;;;;;;;5070410;28;1643;-58
2023/11/08 17:38:05;;;;;;;;;;;;;;;;;;5087362;28;4953;-57
2023/11/08 17:40:31;;;;;;;;;;;;;;;;;;5072993;28;5002;-58
2023/11/08 17:42:57;;;;;;;;;;;;;;;;;;5074541;28;4493;-58
2023/11/08 17:45:29;;;;;;;;;;;;;;;;;;5066789;28;4542;-58
2023/11/08 17:47:55;;;;;;;;;;;;;;;;;;5071183;28;1921;-58
2023/11/08 17:50:23;;;;;;;;;;;;;;;;;;5100240;28;4577;-58
2023/11/08 17:52:50;;;;;;;;;;;;;;;;;;5079797;28;4949;-58
2023/11/08 17:55:15;;;;;;;;;;;;;;;;;;5068697;28;4485;-57
2023/11/08 17:57:41;;;;;;;;;;;;;;;;;;5047091;28;5500;-57
2023/11/08 18:03:12;;;;;;;;;;;;;;;;;;5091440;28;4511;-57
2023/11/08 18:06:09;;;;;;;;;;;;;;;;;;5087866;28;1224;-57
2023/11/08 18:08:53;;;;;;;;;;;;;;;;;;5051990;28;4505;-57
2023/11/08 18:11:18;;;;;;;;;;;;;;;;;;5069498;28;5115;-59
2023/11/08 18:13:47;;;;;;;;;;;;;;;;;;5073569;28;5302;-58
2023/11/08 18:16:13;;;;;;;;;;;;;;;;;;5086953;28;4866;-57
2023/11/08 18:18:53;;;;;;;;;;;;;;;;;;5080292;28;4933;-57
2023/11/08 18:21:19;;;;;;;;;;;;;;;;;;5050525;28;4483;-57
2023/11/08 18:23:45;;;;;;;;;;;;;;;;;;5066629;28;1348;-57
2023/11/08 18:26:10;;;;;;;;;;;;;;;;;;5067305;28;4558;-58
2023/11/08 18:28:35;;;;;;;;;;;;;;;;;;5070400;28;5094;-57
2023/11/08 18:31:03;;;;;;;;;;;;;;;;;;5061405;28;4687;-58
2023/11/08 18:33:36;;;;;;;;;;;;;;;;;;5075713;28;5079;-57
2023/11/08 18:36:01;;;;;;;;;;;;;;;;;;5065106;28;4471;-57
2023/11/08 18:38:26;;;;;;;;;;;;;;;;;;5091044;28;1066;-57
2023/11/08 18:40:54;;;;;;;;;;;;;;;;;;5071859;28;4448;-58
2023/11/08 18:43:24;;;;;;;;;;;;;;;;;;5109358;28;5014;-57
2023/11/08 18:45:53;;;;;;;;;;;;;;;;;;5065904;28;5037;-57
2023/11/08 18:48:40;;;;;;;;;;;;;;;;;;5073949;28;5267;-57
2023/11/08 18:51:12;;;;;;;;;;;;;;;;;;5081216;28;4860;-57
2023/11/08 18:54:07;;;;;;;;;;;;;;;;;;5080571;28;1137;-56
2023/11/08 18:56:50;;;;;;;;;;;;;;;;;;5092870;28;4653;-57
2023/11/08 18:59:15;;;;;;;;;;;;;;;;;;5064238;28;4439;-57
2023/11/08 19:01:40;;;;;;;;;;;;;;;;;;5086786;28;4590;-58
2023/11/08 19:04:08;;;;;;;;;;;;;;;;;;5071653;28;5078;-57
2023/11/08 19:06:33;;;;;;;;;;;;;;;;;;5068659;28;5081;-57
2023/11/08 19:09:00;;;;;;;;;;;;;;;;;;5051661;28;5022;-56
2023/11/08 19:11:36;;;;;;;;;;;;;;;;;;5069903;28;1163;-58
2023/11/08 19:14:03;;;;;;;;;;;;;;;;;;5059221;28;4978;-58
2023/11/08 19:16:30;;;;;;;;;;;;;;;;;;5078669;28;4694;-58
2023/11/08 19:18:58;;;;;;;;;;;;;;;;;;5094117;28;4662;-58
2023/11/08 19:21:24;;;;;;;;;;;;;;;;;;5070181;28;4484;-58
2023/11/08 19:23:50;;;;;;;;;;;;;;;;;;5055120;28;1241;-58
2023/11/08 19:29:59;;;;;;;;;;;;;;;;;;5064191;28;4624;-58
2023/11/08 19:38:32;;;;;;;;;;;;;;;;;;5098486;28;4596;-57
2023/11/08 19:40:58;;;;;;;;;;;;;;;;;;5079398;28;4973;-57
2023/11/08 19:43:24;;;;;;;;;;;;;;;;;;5086163;28;4945;-57
2023/11/08 19:48:52;;;;;;;;;;;;;;;;;;5077022;28;4695;-57
2023/11/08 19:51:17;;;;;;;;;;;;;;;;;;5077208;28;4892;-57
2023/11/08 19:53:43;;;;;;;;;;;;;;;;;;5060423;28;1257;-57
2023/11/08 19:56:09;;;;;;;;;;;;;;;;;;5091170;28;4550;-57
2023/11/08 20:04:46;;;;;;;;;;;;;;;;;;5077125;28;4462;-57
2023/11/08 20:07:14;;;;;;;;;;;;;;;;;;5057857;28;5031;-58
2023/11/08 20:09:40;;;;;;;;;;;;;;;;;;5086692;28;5120;-58
2023/11/08 20:12:06;;;;;;;;;;;;;;;;;;5052358;28;5204;-59
2023/11/08 20:14:31;;;;;;;;;;;;;;;;;;5059907;28;3120;-57
2023/11/08 20:16:56;;;;;;;;;;;;;;;;;;5096574;28;4628;-57
2023/11/08 20:19:22;;;;;;;;;;;;;;;;;;5092947;28;4947;-57
2023/11/08 20:21:47;;;;;;;;;;;;;;;;;;5080451;28;4941;-57
2023/11/08 20:27:15;;;;;;;;;;;;;;;;;;5096322;28;5057;-56
2023/11/08 20:29:40;;;;;;;;;;;;;;;;;;5095271;28;1354;-57
2023/11/08 20:32:06;;;;;;;;;;;;;;;;;;5078147;28;4964;-57
2023/11/08 20:34:31;;;;;;;;;;;;;;;;;;5090068;28;4398;-57
2023/11/08 20:37:21;;;;;;;;;;;;;;;;;;5094097;28;5250;-58
2023/11/08 20:39:47;;;;;;;;;;;;;;;;;;5081274;28;5042;-58
2023/11/08 20:42:12;;;;;;;;;;;;;;;;;;5054431;28;4595;-57
2023/11/08 20:44:37;;;;;;;;;;;;;;;;;;5074025;28;3083;-56
2023/11/08 20:47:03;;;;;;;;;;;;;;;;;;5057974;28;5042;-57
2023/11/08 20:49:28;;;;;;;;;;;;;;;;;;5057942;28;5074;-57
2023/11/08 20:58:35;;;;;;;;;;;;;;;;;;5095703;28;4506;-57
2023/11/08 21:01:01;;;;;;;;;;;;;;;;;;5095470;28;4425;-59
2023/11/08 21:03:27;;;;;;;;;;;;;;;;;;5094091;28;5043;-56
2023/11/08 21:05:53;;;;;;;;;;;;;;;;;;5089374;28;1106;-59
2023/11/08 21:11:22;;;;;;;;;;;;;;;;;;5076076;28;5034;-57
2023/11/08 21:13:47;;;;;;;;;;;;;;;;;;5055417;28;5435;-57
2023/11/08 21:16:12;;;;;;;;;;;;;;;;;;5060692;28;5045;-57
2023/11/08 21:18:38;;;;;;;;;;;;;;;;;;5095693;28;4621;-57
2023/11/08 21:21:22;;;;;;;;;;;;;;;;;;5072035;28;4655;-58
2023/11/08 21:23:48;;;;;;;;;;;;;;;;;;5073253;28;3196;-57
2023/11/08 21:26:15;;;;;;;;;;;;;;;;;;5075012;28;4989;-57
2023/11/08 21:35:40;;;;;;;;;;;;;;;;;;5071383;28;4597;-58